Share

Kagoshima, Japan

Kagoshima (RJFK) Elev 902 ft | 31.80 °N, 130.72 °E | Change Station

Current weather conditions updated 1 hour ago

Scattered Clouds
Scattered Clouds
66 °F
Feels Like 66 °F
N
12
Wind Variable Wind from East
Sunrise 5:45 AM
Sunset 6:48 PM
Moon Waning Gibbous

Today is forecast to be nearly the same temperature as yesterday. Chance of showers.

Pressure 29.98 in
Visibility 6.2 miles
Clouds Few 2000 ft
Scattered Clouds 5000 ft
Dew Point 50 °F
Humidity 56%
Rainfall 0.00 in
Snow Depth Not available.
UV 8 out of 16
Pollen Not available.
Air Quality Not available.
Flu Activity Not available.
METAR RJFK 190100Z 10010KT 9999 FEW020 SCT050 19/10 Q1015 RMK 1CU020 3SC050 A2998

More Conditions Fewer Conditions

Pressure 29.98 in
Visibility 6.2 miles
Clouds Few 2000 ft
Scattered Clouds 5000 ft
Dew Point 50 °F
Humidity 56%
Rainfall 0.00 in
Snow Depth Not available.
UV 8 out of 16
Pollen Not available.
Air Quality Not available.
Flu Activity Not available.
METAR RJFK 190100Z 10010KT 9999 FEW020 SCT050 19/10 Q1015 RMK 1CU020 3SC050 A2998

More Conditions Fewer Conditions

10-Day Weather Forecast

Almanac

Astronomy

Apr. 19, 2014 Rise Set
Actual Time 5:45 AM JST 6:48 PM JST
Civil Twilight 5:20 AM JST 7:14 PM JST
Nautical Twilight 4:50 AM JST 7:43 PM JST
Astronomical Twilight 4:20 AM JST 8:14 PM JST
Moon 10:48 PM JST 8:37 AM JST
Length of Visible Light 13h 53m
Length of Day
13h 03m
Tomorrow will be 1m 48s longer.
Waning Gibbous, 84% of the Moon is Illuminated
Apr 18
Waning Gibbous
Apr 22
Last Quarter
Apr 29
New
May 6
First Quarter
May 14
Full

Yesterday's Extremes

Country Highs Country Lows

Community

  • Cloudy spring view
    Cloudy spring view
  • Old barn
    Old barn
  • What's for Lunch?
    What's for Lunch?
  • SUNRISE THROUGH THE TREES.
    SUNRISE THROUGH THE TREES.
  • Dog Wood Blossoms
    Dog Wood Blossoms

WunderPhotos

Upload Photos

1,702,576 photos uploaded!

WunderBlogs® & News

Nearby

Snow Depth

Not available.

Coastal Water Temperatures

Place Temperature
No Stations Reporting

Earthquake Activity

City Distance Mag. Time & Date
No recent earthquake activity has been reported nearby.
Minimum magnitude displayed is 2.5.

Nearby Weather Stations

There are no personal weather stations in this area.

What do you think?

We're not finished. Please let us know what you like, what you don't like, and what you are still missing.